sensor_id;sensor_type;location;lat;lon;timestamp;pressure;altitude;pressure_sealevel;temperature;humidity
51926;BME280;37952;51.938;15.480;2022-10-31T00:01:37;100070.93;;;17.21;64.77
51926;BME280;37952;51.938;15.480;2022-10-31T00:04:40;100071.04;;;17.11;64.66
51926;BME280;37952;51.938;15.480;2022-10-31T00:07:43;100072.27;;;17.07;64.86
51926;BME280;37952;51.938;15.480;2022-10-31T00:10:46;100072.89;;;17.06;64.92
51926;BME280;37952;51.938;15.480;2022-10-31T00:13:49;100073.66;;;17.07;65.03
51926;BME280;37952;51.938;15.480;2022-10-31T00:16:52;100079.09;;;17.09;64.97
51926;BME280;37952;51.938;15.480;2022-10-31T00:19:55;100078.60;;;17.06;64.85
51926;BME280;37952;51.938;15.480;2022-10-31T00:23:00;100079.17;;;17.05;64.72
51926;BME280;37952;51.938;15.480;2022-10-31T00:26:04;100076.27;;;17.08;64.64
51926;BME280;37952;51.938;15.480;2022-10-31T00:29:07;100075.55;;;17.09;64.44
51926;BME280;37952;51.938;15.480;2022-10-31T00:32:10;100076.10;;;17.08;64.40
51926;BME280;37952;51.938;15.480;2022-10-31T00:35:13;100075.49;;;17.04;63.72
51926;BME280;37952;51.938;15.480;2022-10-31T00:38:16;100074.70;;;17.01;63.85
51926;BME280;37952;51.938;15.480;2022-10-31T00:41:19;100074.11;;;16.97;63.54
51926;BME280;37952;51.938;15.480;2022-10-31T00:44:22;100078.15;;;16.91;63.15
51926;BME280;37952;51.938;15.480;2022-10-31T00:47:25;100077.20;;;16.88;63.35
51926;BME280;37952;51.938;15.480;2022-10-31T00:50:28;100079.90;;;16.88;63.38
51926;BME280;37952;51.938;15.480;2022-10-31T00:53:31;100078.30;;;16.85;62.88
51926;BME280;37952;51.938;15.480;2022-10-31T00:56:34;100078.96;;;16.86;62.81
51926;BME280;37952;51.938;15.480;2022-10-31T00:59:37;100079.17;;;16.81;62.46
51926;BME280;37952;51.938;15.480;2022-10-31T01:02:40;100080.16;;;16.73;62.12
51926;BME280;37952;51.938;15.480;2022-10-31T01:05:43;100078.34;;;16.70;62.62
51926;BME280;37952;51.938;15.480;2022-10-31T01:08:47;100078.55;;;16.69;62.45
51926;BME280;37952;51.938;15.480;2022-10-31T01:11:50;100077.39;;;16.63;62.66
51926;BME280;37952;51.938;15.480;2022-10-31T01:14:54;100078.89;;;16.58;62.20
51926;BME280;37952;51.938;15.480;2022-10-31T01:17:56;100082.05;;;16.54;62.38
51926;BME280;37952;51.938;15.480;2022-10-31T01:24:10;100081.17;;;16.52;62.51
51926;BME280;37952;51.938;15.480;2022-10-31T01:27:13;100079.60;;;16.47;62.08
51926;BME280;37952;51.938;15.480;2022-10-31T01:30:16;100077.98;;;16.45;62.17
51926;BME280;37952;51.938;15.480;2022-10-31T01:33:19;100073.90;;;16.47;62.38
51926;BME280;37952;51.938;15.480;2022-10-31T01:36:31;100075.73;;;16.49;62.08
51926;BME280;37952;51.938;15.480;2022-10-31T01:39:34;100074.59;;;16.38;61.63
51926;BME280;37952;51.938;15.480;2022-10-31T01:42:37;100078.36;;;16.33;62.15
51926;BME280;37952;51.938;15.480;2022-10-31T01:45:41;100075.45;;;16.34;62.10
51926;BME280;37952;51.938;15.480;2022-10-31T01:48:46;100075.77;;;16.37;62.28
51926;BME280;37952;51.938;15.480;2022-10-31T01:51:58;100074.80;;;16.36;62.12
51926;BME280;37952;51.938;15.480;2022-10-31T01:55:48;100074.45;;;16.33;61.80
51926;BME280;37952;51.938;15.480;2022-10-31T01:58:32;100080.23;;;16.32;61.98
51926;BME280;37952;51.938;15.480;2022-10-31T02:01:37;100080.37;;;16.37;62.16
51926;BME280;37952;51.938;15.480;2022-10-31T02:04:41;100080.86;;;16.38;62.06
51926;BME280;37952;51.938;15.480;2022-10-31T02:07:55;100079.07;;;16.33;61.77
51926;BME280;37952;51.938;15.480;2022-10-31T02:11:01;100085.58;;;16.30;61.93
51926;BME280;37952;51.938;15.480;2022-10-31T02:14:10;100082.05;;;16.23;61.88
51926;BME280;37952;51.938;15.480;2022-10-31T02:17:14;100087.27;;;16.20;62.15
51926;BME280;37952;51.938;15.480;2022-10-31T02:20:19;100083.75;;;16.15;62.25
51926;BME280;37952;51.938;15.480;2022-10-31T02:30:41;100093.86;;;16.08;62.30
51926;BME280;37952;51.938;15.480;2022-10-31T02:33:53;100086.19;;;15.99;62.52
51926;BME280;37952;51.938;15.480;2022-10-31T02:40:34;100085.00;;;15.91;62.87
51926;BME280;37952;51.938;15.480;2022-10-31T02:44:05;100091.91;;;15.82;63.08
51926;BME280;37952;51.938;15.480;2022-10-31T02:47:14;100092.74;;;15.67;63.55
51926;BME280;37952;51.938;15.480;2022-10-31T02:50:26;100092.29;;;15.66;63.63
51926;BME280;37952;51.938;15.480;2022-10-31T02:53:35;100098.20;;;15.62;63.92
51926;BME280;37952;51.938;15.480;2022-10-31T02:56:38;100100.35;;;15.57;63.96
51926;BME280;37952;51.938;15.480;2022-10-31T02:59:47;100101.47;;;15.57;64.02
51926;BME280;37952;51.938;15.480;2022-10-31T03:06:18;100099.64;;;15.43;64.25
51926;BME280;37952;51.938;15.480;2022-10-31T03:09:35;100102.80;;;15.46;64.24
51926;BME280;37952;51.938;15.480;2022-10-31T03:12:49;100106.10;;;15.38;64.55
51926;BME280;37952;51.938;15.480;2022-10-31T03:19:34;100112.71;;;15.20;65.33
51926;BME280;37952;51.938;15.480;2022-10-31T03:22:40;100115.23;;;15.20;65.34
51926;BME280;37952;51.938;15.480;2022-10-31T03:25:46;100119.27;;;15.23;65.26
51926;BME280;37952;51.938;15.480;2022-10-31T03:32:00;100124.89;;;15.19;65.17
51926;BME280;37952;51.938;15.480;2022-10-31T03:35:06;100130.17;;;15.20;65.13
51926;BME280;37952;51.938;15.480;2022-10-31T03:38:11;100124.66;;;15.12;65.54
51926;BME280;37952;51.938;15.480;2022-10-31T03:41:19;100124.27;;;15.08;65.66
51926;BME280;37952;51.938;15.480;2022-10-31T03:44:26;100125.98;;;15.09;65.37
51926;BME280;37952;51.938;15.480;2022-10-31T03:47:31;100130.24;;;15.04;65.65
51926;BME280;37952;51.938;15.480;2022-10-31T03:51:06;100128.23;;;15.00;65.68
51926;BME280;37952;51.938;15.480;2022-10-31T03:54:44;100132.46;;;14.91;65.95
51926;BME280;37952;51.938;15.480;2022-10-31T03:57:57;100135.70;;;14.82;66.36
51926;BME280;37952;51.938;15.480;2022-10-31T04:01:09;100135.36;;;14.77;66.54
51926;BME280;37952;51.938;15.480;2022-10-31T04:04:15;100138.97;;;14.71;66.70
51926;BME280;37952;51.938;15.480;2022-10-31T04:07:18;100148.22;;;14.66;66.99
51926;BME280;37952;51.938;15.480;2022-10-31T04:10:26;100147.98;;;14.54;67.37
51926;BME280;37952;51.938;15.480;2022-10-31T04:13:37;100155.34;;;14.53;67.36
51926;BME280;37952;51.938;15.480;2022-10-31T04:16:42;100155.85;;;14.56;67.54
51926;BME280;37952;51.938;15.480;2022-10-31T04:19:46;100158.10;;;14.59;67.21
51926;BME280;37952;51.938;15.480;2022-10-31T04:22:49;100160.68;;;14.55;67.53
51926;BME280;37952;51.938;15.480;2022-10-31T04:25:52;100158.67;;;14.43;67.93
51926;BME280;37952;51.938;15.480;2022-10-31T04:28:55;100155.73;;;14.34;68.22
51926;BME280;37952;51.938;15.480;2022-10-31T04:31:58;100153.36;;;14.35;68.02
51926;BME280;37952;51.938;15.480;2022-10-31T04:35:01;100150.54;;;14.35;68.16
51926;BME280;37952;51.938;15.480;2022-10-31T04:38:04;100149.11;;;14.28;68.84
51926;BME280;37952;51.938;15.480;2022-10-31T04:41:07;100147.89;;;14.22;69.05
51926;BME280;37952;51.938;15.480;2022-10-31T04:44:10;100149.77;;;14.16;69.54
51926;BME280;37952;51.938;15.480;2022-10-31T04:47:12;100153.06;;;14.06;69.73
51926;BME280;37952;51.938;15.480;2022-10-31T04:50:16;100155.70;;;14.01;70.13
51926;BME280;37952;51.938;15.480;2022-10-31T04:53:19;100153.73;;;14.02;69.93
51926;BME280;37952;51.938;15.480;2022-10-31T04:56:21;100149.34;;;14.06;69.75
51926;BME280;37952;51.938;15.480;2022-10-31T04:59:24;100148.34;;;14.08;69.57
51926;BME280;37952;51.938;15.480;2022-10-31T05:02:27;100152.00;;;14.01;70.12
51926;BME280;37952;51.938;15.480;2022-10-31T05:05:31;100145.02;;;14.02;69.82
51926;BME280;37952;51.938;15.480;2022-10-31T05:08:34;100143.80;;;14.04;70.01
51926;BME280;37952;51.938;15.480;2022-10-31T05:11:37;100143.97;;;14.07;69.86
51926;BME280;37952;51.938;15.480;2022-10-31T05:14:39;100139.28;;;14.10;69.68
51926;BME280;37952;51.938;15.480;2022-10-31T05:17:48;100142.50;;;14.15;69.49
51926;BME280;37952;51.938;15.480;2022-10-31T05:20:51;100141.70;;;14.17;69.46
51926;BME280;37952;51.938;15.480;2022-10-31T05:23:54;100145.85;;;14.19;69.77
51926;BME280;37952;51.938;15.480;2022-10-31T05:27:01;100149.43;;;14.15;69.70
51926;BME280;37952;51.938;15.480;2022-10-31T05:30:05;100148.14;;;14.10;70.09
51926;BME280;37952;51.938;15.480;2022-10-31T05:33:08;100151.80;;;13.99;70.63
51926;BME280;37952;51.938;15.480;2022-10-31T05:36:11;100154.77;;;13.94;70.53
51926;BME280;37952;51.938;15.480;2022-10-31T05:39:15;100158.23;;;13.87;70.97
51926;BME280;37952;51.938;15.480;2022-10-31T05:42:18;100162.34;;;13.82;71.17
51926;BME280;37952;51.938;15.480;2022-10-31T05:45:21;100159.36;;;13.89;70.60
51926;BME280;37952;51.938;15.480;2022-10-31T05:48:25;100154.67;;;13.82;71.33
51926;BME280;37952;51.938;15.480;2022-10-31T05:51:27;100162.02;;;13.76;71.44
51926;BME280;37952;51.938;15.480;2022-10-31T05:54:30;100162.80;;;13.77;71.22
51926;BME280;37952;51.938;15.480;2022-10-31T05:57:33;100165.77;;;13.78;71.50
51926;BME280;37952;51.938;15.480;2022-10-31T06:00:38;100171.86;;;13.77;71.42
51926;BME280;37952;51.938;15.480;2022-10-31T06:03:41;100174.12;;;13.75;71.38
51926;BME280;37952;51.938;15.480;2022-10-31T06:06:44;100175.95;;;13.74;71.37
51926;BME280;37952;51.938;15.480;2022-10-31T06:09:47;100178.73;;;13.75;71.41
51926;BME280;37952;51.938;15.480;2022-10-31T06:12:50;100182.61;;;13.78;71.18
51926;BME280;37952;51.938;15.480;2022-10-31T06:15:53;100189.48;;;13.76;71.04
51926;BME280;37952;51.938;15.480;2022-10-31T06:18:56;100182.45;;;13.78;70.75
51926;BME280;37952;51.938;15.480;2022-10-31T06:22:02;100180.05;;;13.79;70.89
51926;BME280;37952;51.938;15.480;2022-10-31T06:25:05;100187.23;;;13.83;70.88
51926;BME280;37952;51.938;15.480;2022-10-31T06:28:08;100195.23;;;13.82;70.92
51926;BME280;37952;51.938;15.480;2022-10-31T06:31:11;100195.16;;;13.78;70.85
51926;BME280;37952;51.938;15.480;2022-10-31T06:34:14;100201.89;;;13.76;70.89
51926;BME280;37952;51.938;15.480;2022-10-31T06:37:17;100207.29;;;13.74;70.93
51926;BME280;37952;51.938;15.480;2022-10-31T06:40:20;100212.73;;;13.75;70.97
51926;BME280;37952;51.938;15.480;2022-10-31T06:43:25;100215.21;;;13.73;71.10
51926;BME280;37952;51.938;15.480;2022-10-31T06:46:28;100214.79;;;13.68;71.10
51926;BME280;37952;51.938;15.480;2022-10-31T06:49:31;100221.45;;;13.72;71.11
51926;BME280;37952;51.938;15.480;2022-10-31T06:52:34;100220.00;;;13.78;71.04
51926;BME280;37952;51.938;15.480;2022-10-31T06:55:37;100225.38;;;13.85;70.77
51926;BME280;37952;51.938;15.480;2022-10-31T06:58:40;100225.52;;;13.91;70.67
51926;BME280;37952;51.938;15.480;2022-10-31T07:01:44;100230.85;;;13.91;70.64
51926;BME280;37952;51.938;15.480;2022-10-31T07:04:48;100232.86;;;13.90;70.79
51926;BME280;37952;51.938;15.480;2022-10-31T07:07:59;100238.87;;;13.90;70.63
51926;BME280;37952;51.938;15.480;2022-10-31T07:11:03;100241.08;;;13.89;70.60
51926;BME280;37952;51.938;15.480;2022-10-31T07:14:10;100243.84;;;13.90;70.51
51926;BME280;37952;51.938;15.480;2022-10-31T07:17:13;100245.05;;;13.82;70.71
51926;BME280;37952;51.938;15.480;2022-10-31T07:20:17;100251.23;;;13.80;70.81
51926;BME280;37952;51.938;15.480;2022-10-31T07:23:21;100252.89;;;13.74;71.10
51926;BME280;37952;51.938;15.480;2022-10-31T07:26:24;100254.73;;;13.78;70.71
51926;BME280;37952;51.938;15.480;2022-10-31T07:29:28;100254.27;;;13.85;70.44
51926;BME280;37952;51.938;15.480;2022-10-31T07:32:42;100256.98;;;13.86;70.63
51926;BME280;37952;51.938;15.480;2022-10-31T07:35:45;100264.22;;;13.90;70.62
51926;BME280;37952;51.938;15.480;2022-10-31T07:38:50;100262.98;;;13.90;70.61
51926;BME280;37952;51.938;15.480;2022-10-31T07:41:52;100266.36;;;13.89;70.69
51926;BME280;37952;51.938;15.480;2022-10-31T07:44:55;100268.95;;;13.85;70.71
51926;BME280;37952;51.938;15.480;2022-10-31T07:47:59;100265.55;;;13.86;70.80
51926;BME280;37952;51.938;15.480;2022-10-31T07:51:03;100263.38;;;13.89;70.85
51926;BME280;37952;51.938;15.480;2022-10-31T07:54:06;100270.61;;;13.87;71.04
51926;BME280;37952;51.938;15.480;2022-10-31T07:57:09;100271.27;;;13.90;70.77
51926;BME280;37952;51.938;15.480;2022-10-31T08:00:12;100276.10;;;13.92;70.92
51926;BME280;37952;51.938;15.480;2022-10-31T08:03:17;100275.27;;;13.94;70.94
51926;BME280;37952;51.938;15.480;2022-10-31T08:06:20;100275.17;;;13.98;70.91
51926;BME280;37952;51.938;15.480;2022-10-31T08:09:23;100275.23;;;14.00;70.80
51926;BME280;37952;51.938;15.480;2022-10-31T08:12:26;100277.43;;;14.05;70.85
51926;BME280;37952;51.938;15.480;2022-10-31T08:15:54;100277.48;;;14.01;71.02
51926;BME280;37952;51.938;15.480;2022-10-31T08:18:58;100282.02;;;13.96;71.41
51926;BME280;37952;51.938;15.480;2022-10-31T08:22:01;100278.40;;;13.98;71.34
51926;BME280;37952;51.938;15.480;2022-10-31T08:25:04;100279.56;;;13.99;71.41
51926;BME280;37952;51.938;15.480;2022-10-31T08:28:10;100278.30;;;13.99;71.45
51926;BME280;37952;51.938;15.480;2022-10-31T08:31:13;100279.17;;;14.03;71.31
51926;BME280;37952;51.938;15.480;2022-10-31T08:34:16;100279.84;;;14.06;71.64
51926;BME280;37952;51.938;15.480;2022-10-31T08:37:19;100280.81;;;14.10;71.41
51926;BME280;37952;51.938;15.480;2022-10-31T08:40:24;100282.92;;;14.12;71.44
51926;BME280;37952;51.938;15.480;2022-10-31T08:43:27;100281.59;;;14.11;71.71
51926;BME280;37952;51.938;15.480;2022-10-31T08:46:30;100284.89;;;14.15;71.49
51926;BME280;37952;51.938;15.480;2022-10-31T08:49:34;100288.39;;;14.18;71.67
51926;BME280;37952;51.938;15.480;2022-10-31T08:52:37;100289.29;;;14.18;71.65
51926;BME280;37952;51.938;15.480;2022-10-31T08:56:00;100285.50;;;14.22;71.54
51926;BME280;37952;51.938;15.480;2022-10-31T08:59:03;100286.56;;;14.22;71.65
51926;BME280;37952;51.938;15.480;2022-10-31T09:02:10;100284.65;;;14.26;71.60
51926;BME280;37952;51.938;15.480;2022-10-31T09:05:13;100284.30;;;14.34;71.40
51926;BME280;37952;51.938;15.480;2022-10-31T09:08:16;100281.13;;;14.39;71.71
51926;BME280;37952;51.938;15.480;2022-10-31T09:11:20;100283.08;;;14.45;71.47
51926;BME280;37952;51.938;15.480;2022-10-31T09:14:23;100285.24;;;14.49;71.54
51926;BME280;37952;51.938;15.480;2022-10-31T09:17:27;100285.15;;;14.53;71.49
51926;BME280;37952;51.938;15.480;2022-10-31T09:20:42;100285.92;;;14.60;71.30
51926;BME280;37952;51.938;15.480;2022-10-31T09:23:45;100287.83;;;14.69;71.05
51926;BME280;37952;51.938;15.480;2022-10-31T09:26:48;100291.31;;;14.77;71.10
51926;BME280;37952;51.938;15.480;2022-10-31T09:29:51;100292.86;;;14.83;70.95
51926;BME280;37952;51.938;15.480;2022-10-31T09:32:55;100295.07;;;14.88;71.27
51926;BME280;37952;51.938;15.480;2022-10-31T09:36:30;100295.05;;;14.91;71.21
51926;BME280;37952;51.938;15.480;2022-10-31T09:39:33;100297.21;;;14.97;71.00
51926;BME280;37952;51.938;15.480;2022-10-31T09:43:02;100296.02;;;15.07;70.69
51926;BME280;37952;51.938;15.480;2022-10-31T09:46:18;100294.80;;;15.12;70.84
51926;BME280;37952;51.938;15.480;2022-10-31T09:50:07;100293.20;;;15.14;70.81
51926;BME280;37952;51.938;15.480;2022-10-31T09:53:33;100304.27;;;15.21;71.02
51926;BME280;37952;51.938;15.480;2022-10-31T09:56:38;100307.92;;;15.25;70.89
51926;BME280;37952;51.938;15.480;2022-10-31T09:59:43;100307.04;;;15.30;70.85
51926;BME280;37952;51.938;15.480;2022-10-31T10:02:56;100311.38;;;15.33;70.96
51926;BME280;37952;51.938;15.480;2022-10-31T10:06:21;100312.23;;;15.39;70.83
51926;BME280;37952;51.938;15.480;2022-10-31T10:09:26;100314.73;;;15.49;70.90
51926;BME280;37952;51.938;15.480;2022-10-31T10:12:49;100313.34;;;15.58;70.84
51926;BME280;37952;51.938;15.480;2022-10-31T10:26:45;100314.42;;;15.80;71.00
51926;BME280;37952;51.938;15.480;2022-10-31T10:29:57;100311.51;;;15.88;70.46
51926;BME280;37952;51.938;15.480;2022-10-31T10:33:21;100313.06;;;15.94;70.39
51926;BME280;37952;51.938;15.480;2022-10-31T10:39:41;100303.29;;;16.06;70.39
51926;BME280;37952;51.938;15.480;2022-10-31T10:50:06;100302.14;;;16.24;70.01
51926;BME280;37952;51.938;15.480;2022-10-31T10:56:53;100300.96;;;16.44;70.16
51926;BME280;37952;51.938;15.480;2022-10-31T11:03:19;100292.27;;;16.65;69.71
51926;BME280;37952;51.938;15.480;2022-10-31T11:06:23;100293.63;;;16.73;69.49
51926;BME280;37952;51.938;15.480;2022-10-31T11:09:30;100292.52;;;16.78;69.51
51926;BME280;37952;51.938;15.480;2022-10-31T11:12:33;100292.25;;;16.89;69.50
51926;BME280;37952;51.938;15.480;2022-10-31T11:15:49;100290.35;;;16.97;69.25
51926;BME280;37952;51.938;15.480;2022-10-31T11:18:53;100289.91;;;17.02;69.17
51926;BME280;37952;51.938;15.480;2022-10-31T11:22:14;100286.44;;;17.08;69.01
51926;BME280;37952;51.938;15.480;2022-10-31T11:28:22;100282.80;;;17.18;69.09
51926;BME280;37952;51.938;15.480;2022-10-31T11:31:27;100286.29;;;17.28;69.02
51926;BME280;37952;51.938;15.480;2022-10-31T11:34:42;100284.15;;;17.39;68.75
51926;BME280;37952;51.938;15.480;2022-10-31T11:37:49;100283.08;;;17.51;68.71
51926;BME280;37952;51.938;15.480;2022-10-31T11:40:57;100281.22;;;17.63;68.57
51926;BME280;37952;51.938;15.480;2022-10-31T11:44:12;100281.44;;;17.70;68.36
51926;BME280;37952;51.938;15.480;2022-10-31T11:47:17;100281.12;;;17.77;68.44
51926;BME280;37952;51.938;15.480;2022-10-31T11:50:27;100283.89;;;17.87;68.33
51926;BME280;37952;51.938;15.480;2022-10-31T11:53:33;100282.64;;;17.95;67.95
51926;BME280;37952;51.938;15.480;2022-10-31T11:56:41;100277.50;;;17.97;67.84
51926;BME280;37952;51.938;15.480;2022-10-31T11:59:51;100276.77;;;18.06;67.89
51926;BME280;37952;51.938;15.480;2022-10-31T12:03:11;100274.79;;;18.13;67.53
51926;BME280;37952;51.938;15.480;2022-10-31T12:06:37;100268.98;;;18.21;67.56
51926;BME280;37952;51.938;15.480;2022-10-31T12:09:41;100265.52;;;18.30;67.39
51926;BME280;37952;51.938;15.480;2022-10-31T12:13:13;100257.50;;;18.38;67.31
51926;BME280;37952;51.938;15.480;2022-10-31T12:16:28;100258.51;;;18.47;67.20
51926;BME280;37952;51.938;15.480;2022-10-31T12:23:37;100252.89;;;18.69;67.28
51926;BME280;37952;51.938;15.480;2022-10-31T12:34:02;100240.92;;;18.98;66.04
51926;BME280;37952;51.938;15.480;2022-10-31T12:37:23;100237.52;;;19.04;66.13
51926;BME280;37952;51.938;15.480;2022-10-31T12:40:57;100233.50;;;19.20;66.29
51926;BME280;37952;51.938;15.480;2022-10-31T12:47:59;100232.11;;;19.42;65.75
51926;BME280;37952;51.938;15.480;2022-10-31T12:55:08;100222.17;;;19.58;65.47
51926;BME280;37952;51.938;15.480;2022-10-31T12:58:26;100219.20;;;19.73;65.60
51926;BME280;37952;51.938;15.480;2022-10-31T13:01:45;100215.19;;;19.86;65.29
51926;BME280;37952;51.938;15.480;2022-10-31T13:08:23;100217.78;;;19.93;64.74
51926;BME280;37952;51.938;15.480;2022-10-31T13:11:35;100217.41;;;19.93;64.52
51926;BME280;37952;51.938;15.480;2022-10-31T13:14:42;100219.05;;;19.91;63.95
51926;BME280;37952;51.938;15.480;2022-10-31T13:17:54;100218.16;;;19.83;64.43
51926;BME280;37952;51.938;15.480;2022-10-31T13:21:02;100215.36;;;19.74;64.47
51926;BME280;37952;51.938;15.480;2022-10-31T13:24:12;100217.27;;;19.67;64.22
51926;BME280;37952;51.938;15.480;2022-10-31T13:30:26;100216.19;;;19.38;64.30
51926;BME280;37952;51.938;15.480;2022-10-31T13:33:53;100222.36;;;19.24;64.23
51926;BME280;37952;51.938;15.480;2022-10-31T13:37:04;100214.16;;;19.08;64.51
51926;BME280;37952;51.938;15.480;2022-10-31T13:40:26;100214.70;;;19.02;64.67
51926;BME280;37952;51.938;15.480;2022-10-31T13:47:01;100208.45;;;18.85;65.02
51926;BME280;37952;51.938;15.480;2022-10-31T13:50:27;100203.73;;;18.82;65.02
51926;BME280;37952;51.938;15.480;2022-10-31T13:56:56;100207.83;;;18.74;65.28
51926;BME280;37952;51.938;15.480;2022-10-31T14:00:03;100207.93;;;18.71;65.30
51926;BME280;37952;51.938;15.480;2022-10-31T14:03:18;100208.00;;;18.68;65.29
51926;BME280;37952;51.938;15.480;2022-10-31T14:06:47;100212.45;;;18.66;65.37
51926;BME280;37952;51.938;15.480;2022-10-31T14:09:56;100212.77;;;18.62;65.36
51926;BME280;37952;51.938;15.480;2022-10-31T14:13:16;100212.27;;;18.62;65.60
51926;BME280;37952;51.938;15.480;2022-10-31T14:16:31;100210.23;;;18.63;65.64
51926;BME280;37952;51.938;15.480;2022-10-31T14:19:34;100202.24;;;18.64;65.70
51926;BME280;37952;51.938;15.480;2022-10-31T14:22:39;100200.25;;;18.67;65.64
51926;BME280;37952;51.938;15.480;2022-10-31T14:25:44;100198.45;;;18.67;65.54
51926;BME280;37952;51.938;15.480;2022-10-31T14:28:49;100202.22;;;18.67;65.54
51926;BME280;37952;51.938;15.480;2022-10-31T14:35:01;100200.13;;;18.64;65.79
51926;BME280;37952;51.938;15.480;2022-10-31T14:39:10;100201.30;;;18.61;65.78
51926;BME280;37952;51.938;15.480;2022-10-31T14:42:06;100200.20;;;18.55;65.80
51926;BME280;37952;51.938;15.480;2022-10-31T14:52:17;100197.75;;;18.42;66.07
51926;BME280;37952;51.938;15.480;2022-10-31T14:55:24;100195.63;;;18.42;66.08
51926;BME280;37952;51.938;15.480;2022-10-31T14:58:40;100193.59;;;18.41;66.03
51926;BME280;37952;51.938;15.480;2022-10-31T15:02:09;100190.44;;;18.38;66.03
51926;BME280;37952;51.938;15.480;2022-10-31T15:05:16;100191.83;;;18.32;66.11
51926;BME280;37952;51.938;15.480;2022-10-31T15:08:50;100188.27;;;18.27;66.09
51926;BME280;37952;51.938;15.480;2022-10-31T15:11:53;100187.84;;;18.22;66.42
51926;BME280;37952;51.938;15.480;2022-10-31T15:14:57;100193.98;;;18.25;66.51
51926;BME280;37952;51.938;15.480;2022-10-31T15:18:05;100195.09;;;18.25;66.49
51926;BME280;37952;51.938;15.480;2022-10-31T15:21:08;100192.89;;;18.24;66.49
51926;BME280;37952;51.938;15.480;2022-10-31T15:24:15;100196.93;;;18.22;66.41
51926;BME280;37952;51.938;15.480;2022-10-31T15:27:18;100199.00;;;18.19;66.47
51926;BME280;37952;51.938;15.480;2022-10-31T15:30:27;100195.23;;;18.13;66.54
51926;BME280;37952;51.938;15.480;2022-10-31T15:33:40;100198.07;;;18.09;66.83
51926;BME280;37952;51.938;15.480;2022-10-31T15:36:50;100192.91;;;18.06;66.93
51926;BME280;37952;51.938;15.480;2022-10-31T15:39:53;100195.02;;;18.04;66.98
51926;BME280;37952;51.938;15.480;2022-10-31T15:43:02;100191.11;;;18.00;66.99
51926;BME280;37952;51.938;15.480;2022-10-31T15:46:09;100192.95;;;17.95;67.07
51926;BME280;37952;51.938;15.480;2022-10-31T15:49:28;100191.10;;;17.90;67.19
51926;BME280;37952;51.938;15.480;2022-10-31T15:52:44;100192.54;;;17.85;67.42
51926;BME280;37952;51.938;15.480;2022-10-31T15:55:55;100193.34;;;17.84;67.50
51926;BME280;37952;51.938;15.480;2022-10-31T15:59:00;100190.58;;;17.83;67.43
51926;BME280;37952;51.938;15.480;2022-10-31T16:02:10;100190.73;;;17.79;67.43
51926;BME280;37952;51.938;15.480;2022-10-31T16:05:18;100192.55;;;17.74;67.53
51926;BME280;37952;51.938;15.480;2022-10-31T16:11:34;100190.23;;;17.60;67.59
51926;BME280;37952;51.938;15.480;2022-10-31T16:14:39;100190.98;;;17.59;67.89
51926;BME280;37952;51.938;15.480;2022-10-31T16:17:46;100189.71;;;17.59;67.91
51926;BME280;37952;51.938;15.480;2022-10-31T16:20:51;100189.55;;;17.61;67.94
51926;BME280;37952;51.938;15.480;2022-10-31T16:24:00;100190.14;;;17.60;67.93
51926;BME280;37952;51.938;15.480;2022-10-31T16:27:17;100187.96;;;17.54;67.87
51926;BME280;37952;51.938;15.480;2022-10-31T16:30:38;100183.79;;;17.46;67.92
51926;BME280;37952;51.938;15.480;2022-10-31T16:33:49;100182.41;;;17.41;68.10
51926;BME280;37952;51.938;15.480;2022-10-31T16:36:52;100186.59;;;17.38;68.14
51926;BME280;37952;51.938;15.480;2022-10-31T16:39:55;100182.69;;;17.36;68.11
51926;BME280;37952;51.938;15.480;2022-10-31T16:42:59;100179.30;;;17.34;68.15
51926;BME280;37952;51.938;15.480;2022-10-31T16:46:03;100177.77;;;17.28;68.16
51926;BME280;37952;51.938;15.480;2022-10-31T16:49:09;100180.34;;;17.25;68.39
51926;BME280;37952;51.938;15.480;2022-10-31T16:52:12;100177.26;;;17.26;68.59
51926;BME280;37952;51.938;15.480;2022-10-31T16:55:17;100175.44;;;17.27;68.67
51926;BME280;37952;51.938;15.480;2022-10-31T16:58:47;100174.23;;;17.24;68.63
51926;BME280;37952;51.938;15.480;2022-10-31T17:01:50;100177.21;;;17.22;68.70
51926;BME280;37952;51.938;15.480;2022-10-31T17:04:54;100176.43;;;17.19;68.63
51926;BME280;37952;51.938;15.480;2022-10-31T17:07:59;100178.99;;;17.16;68.89
51926;BME280;37952;51.938;15.480;2022-10-31T17:11:03;100180.33;;;17.14;68.95
51926;BME280;37952;51.938;15.480;2022-10-31T17:14:06;100177.34;;;17.14;69.02
51926;BME280;37952;51.938;15.480;2022-10-31T17:17:09;100181.25;;;17.14;69.01
51926;BME280;37952;51.938;15.480;2022-10-31T17:20:19;100182.67;;;17.12;69.01
51926;BME280;37952;51.938;15.480;2022-10-31T17:23:22;100182.09;;;17.08;69.05
51926;BME280;37952;51.938;15.480;2022-10-31T17:26:25;100184.60;;;17.05;69.21
51926;BME280;37952;51.938;15.480;2022-10-31T17:29:33;100184.72;;;17.03;69.44
51926;BME280;37952;51.938;15.480;2022-10-31T17:32:36;100182.45;;;17.01;69.32
51926;BME280;37952;51.938;15.480;2022-10-31T17:35:43;100179.65;;;16.98;69.36
51926;BME280;37952;51.938;15.480;2022-10-31T17:38:49;100181.92;;;16.96;69.47
51926;BME280;37952;51.938;15.480;2022-10-31T17:41:51;100178.91;;;16.94;69.44
51926;BME280;37952;51.938;15.480;2022-10-31T17:44:54;100170.27;;;16.91;69.68
51926;BME280;37952;51.938;15.480;2022-10-31T17:47:57;100174.14;;;16.91;69.82
51926;BME280;37952;51.938;15.480;2022-10-31T17:51:02;100173.23;;;16.91;69.80